createdAt,value
2018-06-20T00:00:10.107Z,98608.00
2018-06-20T00:02:41.726Z,98609.00
2018-06-20T00:05:13.429Z,98604.00
2018-06-20T00:07:44.928Z,98604.00
2018-06-20T00:10:16.538Z,98606.00
2018-06-20T00:12:48.165Z,98597.00
2018-06-20T00:15:19.854Z,98594.00
2018-06-20T00:17:51.366Z,98595.00
2018-06-20T00:20:22.982Z,98595.00
2018-06-20T00:22:54.636Z,98594.00
2018-06-20T00:25:26.201Z,98592.00
2018-06-20T00:27:57.886Z,98592.00
2018-06-20T00:30:29.518Z,98593.00
2018-06-20T00:33:00.903Z,98591.00
2018-06-20T00:35:32.485Z,98593.00
2018-06-20T00:38:04.001Z,98592.00
2018-06-20T00:40:35.621Z,98593.00
2018-06-20T00:43:07.314Z,98590.00
2018-06-20T00:45:39.040Z,98588.00
2018-06-20T00:48:10.653Z,98589.00
2018-06-20T00:50:42.230Z,98588.00
2018-06-20T00:53:13.763Z,98586.00
2018-06-20T00:56:30.392Z,98590.00
2018-06-20T00:59:02.000Z,98593.00
2018-06-20T01:01:33.637Z,98587.00
2018-06-20T01:04:05.355Z,98591.00
2018-06-20T01:06:36.844Z,98588.00
2018-06-20T01:09:11.383Z,98588.00
2018-06-20T01:11:43.118Z,98594.00
2018-06-20T01:14:14.525Z,98591.00
2018-06-20T01:16:46.092Z,98593.00
2018-06-20T01:19:17.718Z,98596.00
2018-06-20T01:21:49.377Z,98595.00
2018-06-20T01:24:20.852Z,98592.00
2018-06-20T01:26:52.581Z,98591.00
2018-06-20T01:29:24.157Z,98590.00
2018-06-20T01:31:56.092Z,98589.00
2018-06-20T01:34:27.644Z,98597.00
2018-06-20T01:36:59.347Z,98598.00
2018-06-20T01:39:31.025Z,98598.00
2018-06-20T01:42:02.589Z,98598.00
2018-06-20T01:44:34.276Z,98597.00
2018-06-20T01:47:06.120Z,98594.00
2018-06-20T01:49:37.789Z,98588.00
2018-06-20T01:52:09.372Z,98586.00
2018-06-20T01:54:41.002Z,98591.00
2018-06-20T01:57:12.756Z,98590.00
2018-06-20T01:59:44.247Z,98592.00
2018-06-20T02:02:15.948Z,98589.00
2018-06-20T02:04:47.512Z,98588.00
2018-06-20T02:07:19.238Z,98585.00
2018-06-20T02:09:50.829Z,98589.00
2018-06-20T02:12:22.544Z,98589.00
2018-06-20T02:14:54.045Z,98592.00
2018-06-20T02:17:25.673Z,98591.00
2018-06-20T02:19:57.330Z,98596.00
2018-06-20T02:22:28.785Z,98595.00
2018-06-20T02:25:00.429Z,98592.00
2018-06-20T02:27:32.005Z,98595.00
2018-06-20T02:30:03.920Z,98596.00
2018-06-20T02:32:36.029Z,98592.00
2018-06-20T02:35:08.096Z,98590.00
2018-06-20T02:37:39.830Z,98585.00
2018-06-20T02:40:11.354Z,98581.00
2018-06-20T02:42:42.953Z,98581.00
2018-06-20T02:45:14.543Z,98578.00
2018-06-20T02:47:46.172Z,98582.00
2018-06-20T02:50:17.870Z,98583.00
2018-06-20T02:52:49.593Z,98582.00
2018-06-20T02:55:21.365Z,98582.00
2018-06-20T02:57:53.136Z,98580.00
2018-06-20T03:00:24.713Z,98584.00
2018-06-20T03:02:56.387Z,98579.00
2018-06-20T03:05:27.927Z,98583.00
2018-06-20T03:07:59.617Z,98575.00
2018-06-20T03:10:31.101Z,98580.00
2018-06-20T03:13:02.812Z,98579.00
2018-06-20T03:15:34.313Z,98580.00
2018-06-20T03:18:06.112Z,98579.00
2018-06-20T03:20:37.775Z,98578.00
2018-06-20T03:23:09.326Z,98576.00
2018-06-20T03:25:40.940Z,98579.00
2018-06-20T03:28:12.529Z,98576.00
2018-06-20T03:30:44.153Z,98574.00
2018-06-20T03:33:15.915Z,98575.00
2018-06-20T03:35:47.496Z,98583.00
2018-06-20T03:38:19.268Z,98582.00
2018-06-20T03:40:50.920Z,98584.00
2018-06-20T03:43:22.581Z,98585.00
2018-06-20T03:45:54.247Z,98583.00
2018-06-20T03:48:26.204Z,98582.00
2018-06-20T03:50:58.049Z,98580.00
2018-06-20T03:53:30.028Z,98583.00
2018-06-20T03:56:01.801Z,98582.00
2018-06-20T03:58:32.946Z,98584.00
2018-06-20T04:01:04.330Z,98582.00
2018-06-20T04:03:35.964Z,98585.00
2018-06-20T04:06:07.649Z,98580.00
2018-06-20T04:08:39.273Z,98584.00
2018-06-20T04:11:10.978Z,98579.00
2018-06-20T04:13:42.667Z,98581.00
2018-06-20T04:16:14.342Z,98581.00
2018-06-20T04:18:46.068Z,98577.00
2018-06-20T04:21:18.052Z,98582.00
2018-06-20T04:23:49.588Z,98576.00
2018-06-20T04:26:21.214Z,98574.00
2018-06-20T04:28:52.911Z,98572.00
2018-06-20T04:31:24.520Z,98571.00
2018-06-20T04:33:56.345Z,98572.00
2018-06-20T04:36:28.009Z,98566.00
2018-06-20T04:38:59.842Z,98570.00
2018-06-20T04:41:31.506Z,98566.00
2018-06-20T04:44:03.254Z,98567.00
2018-06-20T04:46:35.042Z,98569.00
2018-06-20T04:49:06.552Z,98570.00
2018-06-20T04:51:38.332Z,98562.00
2018-06-20T04:54:09.454Z,98554.00
2018-06-20T04:56:41.232Z,98551.00
2018-06-20T04:59:12.895Z,98556.00
2018-06-20T05:01:44.548Z,98553.00
2018-06-20T05:04:16.231Z,98554.00
2018-06-20T05:06:47.780Z,98553.00
2018-06-20T05:09:20.098Z,98550.00
2018-06-20T05:11:52.023Z,98548.00
2018-06-20T05:14:23.637Z,98545.00
2018-06-20T05:16:55.356Z,98551.00
2018-06-20T05:19:26.914Z,98554.00
2018-06-20T05:21:58.625Z,98553.00
2018-06-20T05:24:30.121Z,98550.00
2018-06-20T05:27:01.757Z,98552.00
2018-06-20T05:29:33.338Z,98552.00
2018-06-20T05:32:04.970Z,98548.00
2018-06-20T05:34:36.660Z,98548.00
2018-06-20T05:37:08.287Z,98548.00
2018-06-20T05:39:40.007Z,98549.00
2018-06-20T05:42:11.586Z,98552.00
2018-06-20T05:44:43.277Z,98553.00
2018-06-20T05:47:14.646Z,98550.00
2018-06-20T05:49:46.335Z,98549.00
2018-06-20T05:52:17.908Z,98551.00
2018-06-20T05:54:49.645Z,98539.00
2018-06-20T05:57:21.225Z,98545.00
2018-06-20T05:59:52.916Z,98538.00
2018-06-20T06:02:24.536Z,98542.00
2018-06-20T06:04:56.224Z,98540.00
2018-06-20T06:07:27.854Z,98538.00
2018-06-20T06:10:00.501Z,98535.00
2018-06-20T06:12:32.152Z,98536.00
2018-06-20T06:15:03.812Z,98535.00
2018-06-20T06:17:35.391Z,98533.00
2018-06-20T06:20:07.750Z,98534.00
2018-06-20T06:22:39.537Z,98533.00
2018-06-20T06:25:11.159Z,98527.00
2018-06-20T06:27:42.862Z,98529.00
2018-06-20T06:30:14.576Z,98525.00
2018-06-20T06:32:46.225Z,98527.00
2018-06-20T06:35:17.727Z,98529.00
2018-06-20T06:37:49.366Z,98532.00
2018-06-20T06:40:21.117Z,98530.00
2018-06-20T06:42:53.654Z,98530.00
2018-06-20T06:45:25.327Z,98528.00
2018-06-20T06:47:57.002Z,98526.00
2018-06-20T06:50:28.212Z,98527.00
2018-06-20T06:53:00.092Z,98521.00
2018-06-20T06:55:32.012Z,98519.00
2018-06-20T06:58:03.756Z,98519.00
2018-06-20T07:00:35.366Z,98521.00
2018-06-20T07:03:06.978Z,98518.00
2018-06-20T07:05:38.559Z,98516.00
2018-06-20T07:08:10.146Z,98516.00
2018-06-20T07:10:41.672Z,98517.00
2018-06-20T07:13:13.349Z,98517.00
2018-06-20T07:15:44.866Z,98515.00
2018-06-20T07:18:17.481Z,98510.00
2018-06-20T07:20:49.018Z,98516.00
2018-06-20T07:23:20.697Z,98514.00
2018-06-20T07:25:52.259Z,98513.00
2018-06-20T07:28:24.004Z,98504.00
2018-06-20T07:30:55.657Z,98506.00
2018-06-20T07:33:27.421Z,98507.00
2018-06-20T07:35:59.111Z,98512.00
2018-06-20T07:38:30.589Z,98505.00
2018-06-20T07:41:02.289Z,98501.00
2018-06-20T07:43:33.862Z,98499.00
2018-06-20T07:46:05.563Z,98491.00
2018-06-20T07:48:37.251Z,98486.00
2018-06-20T07:51:08.765Z,98490.00
2018-06-20T07:53:40.523Z,98482.00
2018-06-20T07:56:12.099Z,98480.00
2018-06-20T07:58:48.797Z,98483.00
2018-06-20T08:01:35.602Z,98485.00
2018-06-20T08:04:12.221Z,98478.00
2018-06-20T08:06:48.652Z,98477.00
2018-06-20T08:09:25.216Z,98480.00
2018-06-20T08:12:01.732Z,98476.00
2018-06-20T08:14:38.184Z,98470.00
2018-06-20T08:17:14.706Z,98473.00
2018-06-20T08:19:53.488Z,98470.00
2018-06-20T08:22:25.275Z,98464.00
2018-06-20T08:25:06.453Z,98462.00
2018-06-20T08:27:38.148Z,98454.00
2018-06-20T08:30:09.739Z,98460.00
2018-06-20T08:32:41.305Z,98456.00
2018-06-20T08:35:12.936Z,98457.00
2018-06-20T08:37:44.583Z,98461.00
2018-06-20T08:40:16.149Z,98461.00
2018-06-20T08:42:47.798Z,98460.00
2018-06-20T08:45:19.359Z,98455.00
2018-06-20T08:47:50.948Z,98459.00
2018-06-20T08:50:22.560Z,98453.00
2018-06-20T08:52:54.046Z,98450.00
2018-06-20T08:55:25.684Z,98441.00
2018-06-20T08:57:57.390Z,98443.00
2018-06-20T09:00:33.985Z,98442.00
2018-06-20T09:03:05.609Z,98436.00
2018-06-20T09:05:42.040Z,98435.00
2018-06-20T09:08:18.471Z,98431.00
2018-06-20T09:10:55.051Z,98435.00
2018-06-20T09:13:31.593Z,98432.00
2018-06-20T09:16:08.188Z,98431.00
2018-06-20T09:18:44.576Z,98426.00
2018-06-20T09:21:16.218Z,98425.00
2018-06-20T09:23:47.712Z,98424.00
2018-06-20T09:26:19.421Z,98419.00
2018-06-20T09:28:51.088Z,98429.00
2018-06-20T09:31:22.750Z,98427.00
2018-06-20T09:33:54.414Z,98421.00
2018-06-20T09:36:25.935Z,98423.00
2018-06-20T09:38:57.569Z,98417.00
2018-06-20T09:41:29.980Z,98418.00
2018-06-20T09:44:01.513Z,98419.00
2018-06-20T09:46:33.188Z,98415.00
2018-06-20T09:49:04.696Z,98414.00
2018-06-20T09:51:36.402Z,98415.00
2018-06-20T09:54:07.911Z,98413.00
2018-06-20T09:56:39.614Z,98407.00
2018-06-20T09:59:16.044Z,98413.00
2018-06-20T10:01:52.505Z,98409.00
2018-06-20T10:04:29.058Z,98405.00
2018-06-20T10:07:05.843Z,98406.00
2018-06-20T10:09:42.363Z,98403.00
2018-06-20T10:12:18.935Z,98401.00
2018-06-20T10:14:50.521Z,98405.00
2018-06-20T10:17:22.210Z,98399.00
2018-06-20T10:19:53.829Z,98392.00
2018-06-20T10:22:25.563Z,98384.00
2018-06-20T10:24:57.208Z,98384.00
2018-06-20T10:27:28.881Z,98377.00
2018-06-20T10:30:00.433Z,98376.00
2018-06-20T10:32:31.672Z,98370.00
2018-06-20T10:35:03.113Z,98370.00
2018-06-20T10:37:34.920Z,98362.00
2018-06-20T10:40:06.557Z,98359.00
2018-06-20T10:42:38.197Z,98359.00
2018-06-20T10:45:14.882Z,98349.00
2018-06-20T10:47:47.704Z,98344.00
2018-06-20T10:50:19.305Z,98345.00
2018-06-20T10:52:50.977Z,98341.00
2018-06-20T10:55:22.543Z,98341.00
2018-06-20T10:57:58.962Z,98334.00
2018-06-20T11:01:35.571Z,98332.00
2018-06-20T11:04:12.136Z,98325.00
2018-06-20T11:06:48.650Z,98326.00
2018-06-20T11:09:25.113Z,98320.00
2018-06-20T11:12:01.705Z,98323.00
2018-06-20T11:14:33.514Z,98312.00
2018-06-20T11:17:04.678Z,98311.00
2018-06-20T11:19:36.288Z,98308.00
2018-06-20T11:22:08.074Z,98304.00
2018-06-20T11:24:39.732Z,98299.00
2018-06-20T11:27:10.895Z,98298.00
2018-06-20T11:29:42.636Z,98288.00
2018-06-20T11:32:14.291Z,98290.00
2018-06-20T11:34:45.949Z,98286.00
2018-06-20T11:37:17.453Z,98278.00
2018-06-20T11:39:49.157Z,98273.00
2018-06-20T11:42:20.662Z,98272.00
2018-06-20T11:44:52.293Z,98270.00
2018-06-20T11:47:28.701Z,98269.00
2018-06-20T11:50:00.437Z,98268.00
2018-06-20T11:52:37.036Z,98262.00
2018-06-20T11:55:13.493Z,98251.00
2018-06-20T11:57:45.180Z,98253.00
2018-06-20T12:00:21.877Z,98247.00
2018-06-20T12:04:01.664Z,98251.00
2018-06-20T12:06:38.406Z,98241.00
2018-06-20T12:09:14.873Z,98239.00
2018-06-20T12:12:49.395Z,98238.00
2018-06-20T12:15:25.556Z,98232.00
2018-06-20T12:18:01.936Z,98227.00
2018-06-20T12:20:38.063Z,98224.00
2018-06-20T12:23:14.484Z,98223.00
2018-06-20T12:25:51.027Z,98221.00
2018-06-20T12:28:27.080Z,98212.00
2018-06-20T12:31:03.436Z,98210.00
2018-06-20T12:33:39.859Z,98210.00
2018-06-20T12:36:16.602Z,98204.00
2018-06-20T12:38:53.238Z,98201.00
2018-06-20T12:41:29.906Z,98197.00
2018-06-20T12:44:06.513Z,98189.00
2018-06-20T12:47:47.092Z,98186.00
2018-06-20T12:50:28.772Z,98180.00
2018-06-20T12:53:00.357Z,98179.00
2018-06-20T12:55:31.838Z,98178.00
2018-06-20T12:58:03.469Z,98172.00
2018-06-20T13:00:35.062Z,98174.00
2018-06-20T13:03:06.672Z,98168.00
2018-06-20T13:05:38.261Z,98166.00
2018-06-20T13:08:09.965Z,98166.00
2018-06-20T13:10:41.179Z,98166.00
2018-06-20T13:13:12.698Z,98168.00
2018-06-20T13:15:44.433Z,98155.00
2018-06-20T13:18:15.905Z,98163.00
2018-06-20T13:20:47.633Z,98156.00
2018-06-20T13:23:19.179Z,98154.00
2018-06-20T13:25:50.808Z,98154.00
2018-06-20T13:28:22.603Z,98152.00
2018-06-20T13:30:59.331Z,98149.00
2018-06-20T13:33:36.258Z,98142.00
2018-06-20T13:36:12.760Z,98139.00
2018-06-20T13:38:49.361Z,98139.00
2018-06-20T13:41:33.858Z,98130.00
2018-06-20T13:44:07.205Z,98133.00
2018-06-20T13:46:43.725Z,98128.00
2018-06-20T13:49:15.389Z,98128.00
2018-06-20T13:51:46.884Z,98128.00
2018-06-20T13:54:18.489Z,98129.00
2018-06-20T13:56:49.997Z,98129.00
2018-06-20T13:59:21.720Z,98127.00
2018-06-20T14:01:53.545Z,98124.00
2018-06-20T14:04:25.377Z,98123.00
2018-06-20T14:06:57.161Z,98120.00
2018-06-20T14:09:29.040Z,98120.00
2018-06-20T14:12:00.699Z,98120.00
2018-06-20T14:14:31.763Z,98119.00
2018-06-20T14:17:03.281Z,98113.00
2018-06-20T14:19:39.873Z,98105.00
2018-06-20T14:22:11.562Z,98105.00
2018-06-20T14:24:43.204Z,98103.00
2018-06-20T14:27:14.603Z,98099.00
2018-06-20T14:29:46.218Z,98096.00
2018-06-20T14:32:22.796Z,98091.00
2018-06-20T14:34:59.431Z,98090.00
2018-06-20T14:37:35.464Z,98090.00
2018-06-20T14:40:12.070Z,98083.00
2018-06-20T14:42:48.267Z,98084.00
2018-06-20T14:45:24.729Z,98080.00
2018-06-20T14:47:56.454Z,98079.00
2018-06-20T14:50:28.033Z,98072.00
2018-06-20T14:52:59.083Z,98076.00
2018-06-20T14:55:30.628Z,98073.00
2018-06-20T14:58:02.381Z,98072.00
2018-06-20T15:00:34.057Z,98070.00
2018-06-20T15:03:05.736Z,98065.00
2018-06-20T15:05:37.258Z,98070.00
2018-06-20T15:08:08.941Z,98069.00
2018-06-20T15:10:40.748Z,98064.00
2018-06-20T15:13:11.790Z,98061.00
2018-06-20T15:15:43.305Z,98063.00
2018-06-20T15:18:14.877Z,98060.00
2018-06-20T15:20:46.903Z,98052.00
2018-06-20T15:23:18.503Z,98051.00
2018-06-20T15:25:55.141Z,98047.00
2018-06-20T15:28:31.525Z,98043.00
2018-06-20T15:31:08.162Z,98040.00
2018-06-20T15:33:44.544Z,98036.00
2018-06-20T15:36:21.130Z,98033.00
2018-06-20T15:38:52.742Z,98032.00
2018-06-20T15:41:23.790Z,98029.00
2018-06-20T15:43:55.377Z,98031.00
2018-06-20T15:46:27.029Z,98026.00
2018-06-20T15:48:58.705Z,98026.00
2018-06-20T15:51:30.454Z,98018.00
2018-06-20T15:54:02.029Z,98020.00
2018-06-20T15:56:33.711Z,98015.00
2018-06-20T15:59:05.240Z,98017.00
2018-06-20T16:01:37.017Z,98009.00
2018-06-20T16:04:08.621Z,98007.00
2018-06-20T16:06:40.257Z,98013.00
2018-06-20T16:09:16.849Z,98006.00
2018-06-20T16:11:48.467Z,98008.00
2018-06-20T16:14:20.105Z,98011.00
2018-06-20T16:16:51.814Z,98007.00
2018-06-20T16:19:28.392Z,98004.00
2018-06-20T16:22:05.184Z,98007.00
2018-06-20T16:24:41.842Z,98004.00
2018-06-20T16:27:18.568Z,98002.00
2018-06-20T16:29:54.970Z,98003.00
2018-06-20T16:32:26.656Z,98000.00
2018-06-20T16:34:58.269Z,97996.00
2018-06-20T16:37:29.994Z,97994.00
2018-06-20T16:40:01.573Z,97989.00
2018-06-20T16:42:33.225Z,97987.00
2018-06-20T16:45:04.945Z,97990.00
2018-06-20T16:47:36.561Z,97989.00
2018-06-20T16:50:08.182Z,97992.00
2018-06-20T16:52:39.842Z,97988.00
2018-06-20T16:55:11.556Z,97985.00
2018-06-20T16:57:43.177Z,97988.00
2018-06-20T17:00:14.915Z,97985.00
2018-06-20T17:02:46.547Z,97981.00
2018-06-20T17:05:18.230Z,97981.00
2018-06-20T17:07:49.780Z,97980.00
2018-06-20T17:10:21.704Z,97982.00
2018-06-20T17:12:58.708Z,97976.00
2018-06-20T17:15:35.606Z,97972.00
2018-06-20T17:18:12.257Z,97972.00
2018-06-20T17:20:49.160Z,97970.00
2018-06-20T17:23:26.040Z,97968.00
2018-06-20T17:25:57.597Z,97969.00
2018-06-20T17:28:29.145Z,97968.00
2018-06-20T17:31:00.903Z,97963.00
2018-06-20T17:33:32.446Z,97962.00
2018-06-20T17:36:04.121Z,97960.00
2018-06-20T17:38:35.862Z,97957.00
2018-06-20T17:41:07.410Z,97955.00
2018-06-20T17:43:38.972Z,97962.00
2018-06-20T17:46:10.509Z,97957.00
2018-06-20T17:48:42.081Z,97954.00
2018-06-20T17:51:13.706Z,97958.00
2018-06-20T17:53:45.298Z,97956.00
2018-06-20T17:56:16.913Z,97958.00
2018-06-20T17:58:48.500Z,97961.00
2018-06-20T18:01:20.162Z,97960.00
2018-06-20T18:03:51.897Z,97960.00
2018-06-20T18:06:28.342Z,97956.00
2018-06-20T18:09:04.946Z,97954.00
2018-06-20T18:11:41.744Z,97949.00
2018-06-20T18:14:18.521Z,97952.00
2018-06-20T18:16:55.075Z,97946.00
2018-06-20T18:19:26.988Z,97952.00
2018-06-20T18:21:58.557Z,97950.00
2018-06-20T18:24:30.274Z,97950.00
2018-06-20T18:27:01.348Z,97949.00
2018-06-20T18:29:32.967Z,97944.00
2018-06-20T18:32:04.882Z,97946.00
2018-06-20T18:34:36.521Z,97945.00
2018-06-20T18:37:08.147Z,97950.00
2018-06-20T18:39:44.779Z,97948.00
2018-06-20T18:42:16.432Z,97946.00
2018-06-20T18:44:48.229Z,97948.00
2018-06-20T18:47:24.491Z,97952.00
2018-06-20T18:49:55.770Z,97958.00
2018-06-20T18:52:27.001Z,97959.00
2018-06-20T18:54:58.291Z,97960.00
2018-06-20T18:57:34.729Z,97956.00
2018-06-20T19:00:12.335Z,97957.00
2018-06-20T19:02:48.853Z,97958.00
2018-06-20T19:05:25.384Z,97957.00
2018-06-20T19:08:01.881Z,97964.00
2018-06-20T19:10:33.457Z,97957.00
2018-06-20T19:13:05.183Z,97960.00
2018-06-20T19:15:36.803Z,97960.00
2018-06-20T19:18:08.416Z,97961.00
2018-06-20T19:20:40.092Z,97956.00
2018-06-20T19:23:11.709Z,97964.00
2018-06-20T19:25:43.401Z,97964.00
2018-06-20T19:28:14.944Z,97974.00
2018-06-20T19:30:46.616Z,97974.00
2018-06-20T19:33:18.238Z,97984.00
2018-06-20T19:35:49.829Z,97990.00
2018-06-20T19:38:21.438Z,97990.00
2018-06-20T19:40:53.060Z,97988.00
2018-06-20T19:43:24.706Z,97991.00
2018-06-20T19:45:56.277Z,97992.00
2018-06-20T19:48:27.852Z,98002.00
2018-06-20T19:50:59.560Z,97999.00
2018-06-20T19:53:31.230Z,98000.00
2018-06-20T19:56:02.900Z,98001.00
2018-06-20T19:58:34.496Z,98003.00
2018-06-20T20:01:06.086Z,98011.00
2018-06-20T20:03:37.754Z,98003.00
2018-06-20T20:06:09.289Z,98004.00
2018-06-20T20:08:40.915Z,98006.00
2018-06-20T20:11:12.915Z,98006.00
2018-06-20T20:13:44.516Z,98005.00
2018-06-20T20:16:16.161Z,98000.00
2018-06-20T20:18:47.731Z,97995.00
2018-06-20T20:21:19.441Z,97998.00
2018-06-20T20:23:51.007Z,98000.00
2018-06-20T20:26:22.665Z,98000.00
2018-06-20T20:28:54.192Z,98002.00
2018-06-20T20:31:25.875Z,98001.00
2018-06-20T20:33:57.434Z,98004.00
2018-06-20T20:36:29.066Z,98007.00
2018-06-20T20:39:00.565Z,98015.00
2018-06-20T20:41:32.305Z,98007.00
2018-06-20T20:44:04.003Z,98009.00
2018-06-20T20:46:35.689Z,98011.00
2018-06-20T20:49:07.305Z,98013.00
2018-06-20T20:51:38.929Z,98015.00
2018-06-20T20:54:10.562Z,98015.00
2018-06-20T20:56:42.321Z,98020.00
2018-06-20T20:59:13.862Z,98014.00
2018-06-20T21:01:45.597Z,98015.00
2018-06-20T21:04:17.165Z,98014.00
2018-06-20T21:06:48.895Z,98014.00
2018-06-20T21:09:20.448Z,98015.00
2018-06-20T21:11:52.193Z,98014.00
2018-06-20T21:14:23.919Z,98016.00
2018-06-20T21:16:55.717Z,98024.00
2018-06-20T21:19:27.336Z,98024.00
2018-06-20T21:21:58.913Z,98022.00
2018-06-20T21:24:30.403Z,98024.00
2018-06-20T21:27:02.026Z,98023.00
2018-06-20T21:29:33.709Z,98016.00
2018-06-20T21:32:05.297Z,98018.00
2018-06-20T21:34:37.133Z,98015.00
2018-06-20T21:37:08.989Z,98016.00
2018-06-20T21:39:40.466Z,98019.00
2018-06-20T21:42:12.141Z,98018.00
2018-06-20T21:44:43.255Z,98016.00
2018-06-20T21:47:14.640Z,98022.00
2018-06-20T21:49:46.240Z,98018.00
2018-06-20T21:52:17.993Z,98021.00
2018-06-20T21:54:49.586Z,98015.00
2018-06-20T21:57:21.256Z,98017.00
2018-06-20T21:59:52.781Z,98015.00
2018-06-20T22:02:24.634Z,98013.00
2018-06-20T22:04:56.285Z,98014.00
2018-06-20T22:07:27.874Z,98011.00
2018-06-20T22:09:59.417Z,98005.00
2018-06-20T22:12:30.991Z,98012.00
2018-06-20T22:15:02.774Z,98004.00
2018-06-20T22:17:34.517Z,98006.00
2018-06-20T22:20:06.164Z,98006.00
2018-06-20T22:22:37.745Z,98000.00
2018-06-20T22:25:09.224Z,98001.00
2018-06-20T22:27:40.851Z,98004.00
2018-06-20T22:30:12.339Z,98002.00
2018-06-20T22:32:43.932Z,98000.00
2018-06-20T22:35:15.586Z,97996.00
2018-06-20T22:38:08.546Z,97999.00
2018-06-20T22:40:40.196Z,97997.00
2018-06-20T22:43:11.866Z,97994.00
2018-06-20T22:45:43.409Z,97990.00
2018-06-20T22:48:15.073Z,97988.00
2018-06-20T22:50:46.565Z,97986.00
2018-06-20T22:53:18.286Z,97988.00
2018-06-20T22:55:50.039Z,97985.00
2018-06-20T22:58:21.610Z,97984.00
2018-06-20T23:00:53.102Z,97985.00
2018-06-20T23:03:24.826Z,97982.00
2018-06-20T23:05:56.470Z,97983.00
2018-06-20T23:08:28.046Z,97983.00
2018-06-20T23:10:59.826Z,97985.00
2018-06-20T23:13:31.533Z,97982.00
2018-06-20T23:16:03.118Z,97980.00
2018-06-20T23:18:34.868Z,97979.00
2018-06-20T23:21:06.513Z,97975.00
2018-06-20T23:23:38.109Z,97974.00
2018-06-20T23:26:09.737Z,97974.00
2018-06-20T23:28:41.369Z,97973.00
2018-06-20T23:31:12.917Z,97970.00
2018-06-20T23:33:44.539Z,97965.00
2018-06-20T23:36:16.235Z,97962.00
2018-06-20T23:38:47.850Z,97960.00
2018-06-20T23:41:19.692Z,97958.00
2018-06-20T23:43:51.248Z,97964.00
2018-06-20T23:46:22.961Z,97961.00
2018-06-20T23:48:54.479Z,97958.00
2018-06-20T23:51:26.240Z,97957.00
2018-06-20T23:53:57.896Z,97953.00
2018-06-20T23:56:29.587Z,97952.00
2018-06-20T23:59:01.244Z,97952.00
